Honor, Michigan
Current Conditions -  °F | °C
As of 4:34 AM on Friday 31 Oct 2014 (Local Time) from KFKS Reporting Station
Moderate Rain Moderate Rain  
Wind Chill: 33°   Ceiling: 2400
Heat Index: 40°   Visibility: 7mi
Dew Point: 38°   Wind: 12mph
Humidity: 91%   Direction: 340°NNW
Pressure: 29.92"   Gusts: 20mph
Location:  44.66°N, 86.02°W
Report Text: KFKS 310834Z AUTO 34010G17KT 7SM RA SCT017 BKN024 OVC032 04/03 A2992 RMK AO2 T00440031
Loading
Personal Weather Stations






























Interactive Weather Map
Tropical Storm Tracking
New forecast layout! Learn more

10-Day Weather Forecast

Advertisements
Track Severe Weather on mobile